Time;durP1;ratioP1;P1;durP2;ratioP2;P2;SDS_P1;SDS_P2;PMS_P1;PMS_P2;Temp;Humidity;BMP_temperature;BMP_pressure;BME280_temperature;BME280_humidity;BME280_pressure;Samples;Min_cycle;Max_cycle;Signal;HPM_P1;HPM_P2
2021/06/11 00:00:00;;;;;;;5.65;5.05;;;538.30;1638.40;;;;;;5073959;28;20040;-67
2021/06/11 00:02:26;;;;;;;6.40;4.55;;;538.30;1612.80;;;;;;5073858;28;20063;-68
2021/06/11 00:04:52;;;;;;;8.45;5.10;;;538.20;1638.40;;;;;;5073943;28;20020;-62
2021/06/11 00:07:18;;;;;;;8.57;5.10;;;538.20;1612.80;;;;;;5074109;28;20138;-62
2021/06/11 00:09:44;;;;;;;6.75;4.53;;;538.20;1638.40;;;;;;5074055;28;20023;-62
2021/06/11 00:12:13;;;;;;;7.95;4.65;;;538.20;1612.80;;;;;;5073712;28;20042;-63
2021/06/11 00:14:40;;;;;;;6.40;4.65;;;538.20;1612.80;;;;;;5073790;28;20405;-68
2021/06/11 00:17:06;;;;;;;6.78;4.78;;;538.20;1612.80;;;;;;5073740;28;20059;-63
2021/06/11 00:19:32;;;;;;;6.93;4.63;;;538.20;1612.80;;;;;;5073189;28;20099;-63
2021/06/11 00:22:00;;;;;;;7.47;4.18;;;538.20;1612.80;;;;;;5073667;28;20038;-62
2021/06/11 00:24:26;;;;;;;7.75;4.57;;;538.10;1612.80;;;;;;5074020;28;20025;-62
2021/06/11 00:26:52;;;;;;;6.10;4.18;;;538.10;1612.80;;;;;;5073637;28;20094;-62
2021/06/11 00:29:18;;;;;;;10.77;4.32;;;538.10;1612.80;;;;;;5073544;28;20048;-68
2021/06/11 00:31:44;;;;;;;4.97;3.83;;;538.10;1612.80;;;;;;5073553;28;20056;-62
2021/06/11 00:34:10;;;;;;;4.30;3.90;;;538.10;1587.20;;;;;;5073490;28;20025;-68
2021/06/11 00:36:36;;;;;;;5.85;4.30;;;538.10;1587.20;;;;;;5074013;28;20032;-67
2021/06/11 00:39:02;;;;;;;5.10;4.15;;;538.20;1587.20;;;;;;5073426;28;20146;-62
2021/06/11 00:41:28;;;;;;;5.68;4.40;;;538.10;1587.20;;;;;;5073775;28;20052;-62
2021/06/11 00:43:54;;;;;;;4.53;3.92;;;538.10;1587.20;;;;;;5073349;28;20089;-62
2021/06/11 00:46:20;;;;;;;8.63;4.10;;;538.10;1587.20;;;;;;5073668;28;20431;-68
2021/06/11 00:48:45;;;;;;;5.80;3.88;;;538.10;1587.20;;;;;;5073338;28;20028;-62
2021/06/11 00:51:11;;;;;;;4.32;3.75;;;538.10;1587.20;;;;;;5073588;28;20116;-64
2021/06/11 00:53:37;;;;;;;6.47;3.70;;;538.10;1587.20;;;;;;5073256;28;20064;-68
2021/06/11 00:56:03;;;;;;;4.47;3.95;;;538.10;1587.20;;;;;;5073486;28;20038;-67
2021/06/11 00:58:30;;;;;;;7.43;3.90;;;538.10;1587.20;;;;;;5073430;28;20076;-68
2021/06/11 01:00:56;;;;;;;4.65;3.90;;;538.10;1587.20;;;;;;5073198;28;20510;-62
2021/06/11 01:03:22;;;;;;;6.90;4.43;;;538.10;1587.20;;;;;;5073470;28;20033;-62
2021/06/11 01:05:48;;;;;;;4.25;3.80;;;538.00;1612.80;;;;;;5073257;28;20028;-62
2021/06/11 01:08:17;;;;;;;6.10;4.38;;;538.00;1612.80;;;;;;5073456;28;20424;-67
2021/06/11 01:10:44;;;;;;;7.82;4.40;;;538.00;1612.80;;;;;;5073141;28;20462;-63
2021/06/11 01:13:14;;;;;;;6.45;4.20;;;538.00;1612.80;;;;;;5073695;28;20027;-68
2021/06/11 01:15:40;;;;;;;7.57;4.40;;;537.80;1638.40;;;;;;5073171;28;20414;-67
2021/06/11 01:18:06;;;;;;;7.15;3.78;;;537.60;1638.40;;;;;;5073200;28;20036;-67
2021/06/11 01:20:33;;;;;;;6.93;4.30;;;537.70;1638.40;;;;;;5072912;28;20048;-63
2021/06/11 01:23:17;;;;;;;6.18;4.43;;;537.70;1638.40;;;;;;5071640;28;20032;-68
2021/06/11 01:26:05;;;;;;;5.13;4.57;;;537.70;1638.40;;;;;;5073000;28;20044;-62
2021/06/11 01:28:31;;;;;;;8.60;4.40;;;537.70;1638.40;;;;;;5073560;28;20032;-62
2021/06/11 01:30:59;;;;;;;6.57;4.50;;;537.70;1638.40;;;;;;5074211;28;20020;-62
2021/06/11 01:33:29;;;;;;;7.22;4.20;;;537.70;1638.40;;;;;;5077044;28;20058;-67
2021/06/11 01:36:12;;;;;;;4.90;4.40;;;537.70;1638.40;;;;;;5077230;28;20090;-66
2021/06/11 01:38:44;;;;;;;9.18;4.45;;;537.60;1638.40;;;;;;5075446;28;20016;-62
2021/06/11 01:41:15;;;;;;;4.72;4.05;;;537.60;1638.40;;;;;;5076743;28;20047;-68
2021/06/11 01:43:42;;;;;;;6.68;4.35;;;537.60;1638.40;;;;;;5076932;28;20108;-68
2021/06/11 01:46:16;;;;;;;4.88;4.05;;;512.90;1612.80;;;;;;5076837;28;20424;-62
2021/06/11 01:48:44;;;;;;;8.50;4.90;;;512.70;1638.40;;;;;;5076831;28;20048;-63
2021/06/11 01:51:12;;;;;;;5.65;4.65;;;512.70;1638.40;;;;;;5076563;28;20377;-62
2021/06/11 01:53:42;;;;;;;8.20;4.85;;;512.60;1638.40;;;;;;5076708;28;20031;-67
2021/06/11 01:56:11;;;;;;;5.65;4.68;;;512.60;1638.40;;;;;;5076390;28;20162;-62
2021/06/11 01:58:38;;;;;;;7.63;4.70;;;512.70;1638.40;;;;;;5076076;28;20497;-68
2021/06/11 02:01:05;;;;;;;6.22;4.35;;;512.70;1638.40;;;;;;5076533;28;20029;-62
2021/06/11 02:03:31;;;;;;;5.82;4.45;;;512.60;1638.40;;;;;;5076247;28;20036;-62
2021/06/11 02:05:58;;;;;;;5.20;4.60;;;512.50;1664.00;;;;;;5076191;28;20074;-62
2021/06/11 02:08:25;;;;;;;6.70;4.90;;;512.40;1664.00;;;;;;5076437;28;20103;-68
2021/06/11 02:10:52;;;;;;;7.72;5.28;;;512.40;1664.00;;;;;;5076362;28;20025;-68
2021/06/11 02:13:18;;;;;;;7.97;5.30;;;512.40;1664.00;;;;;;5076319;28;20031;-62
2021/06/11 02:15:44;;;;;;;5.90;4.72;;;512.30;1638.40;;;;;;5075909;28;20025;-62
2021/06/11 02:18:12;;;;;;;7.55;5.28;;;512.30;1664.00;;;;;;5075900;28;20078;-68
2021/06/11 02:20:38;;;;;;;5.78;4.88;;;512.30;1638.40;;;;;;5076256;28;20038;-67
2021/06/11 02:23:05;;;;;;;6.82;4.75;;;512.30;1638.40;;;;;;5076029;28;20020;-62
2021/06/11 02:25:31;;;;;;;8.18;5.68;;;512.30;1638.40;;;;;;5076094;28;20465;-67
2021/06/11 02:27:58;;;;;;;8.85;5.50;;;512.30;1638.40;;;;;;5075779;28;20028;-62
2021/06/11 02:30:24;;;;;;;8.27;5.68;;;512.30;1638.40;;;;;;5075779;28;20028;-62
2021/06/11 02:32:50;;;;;;;10.75;5.72;;;512.30;1638.40;;;;;;5075758;28;20485;-62
2021/06/11 02:35:19;;;;;;;7.60;5.70;;;512.30;1638.40;;;;;;5075739;28;20497;-62
2021/06/11 02:37:46;;;;;;;9.38;4.88;;;512.30;1638.40;;;;;;5075503;28;20032;-62
2021/06/11 02:40:13;;;;;;;6.65;5.70;;;512.20;1638.40;;;;;;5075774;28;20027;-63
2021/06/11 02:42:42;;;;;;;9.82;5.95;;;512.20;1664.00;;;;;;5075071;28;20036;-68
2021/06/11 02:45:13;;;;;;;10.57;5.40;;;512.20;1664.00;;;;;;5075757;28;20029;-68
2021/06/11 02:48:00;;;;;;;7.93;5.28;;;512.20;1664.00;;;;;;5075655;28;20090;-68
2021/06/11 02:50:40;;;;;;;9.77;6.07;;;512.20;1664.00;;;;;;5075424;28;20481;-68
2021/06/11 02:53:09;;;;;;;12.55;5.72;;;512.10;1664.00;;;;;;5075278;28;20524;-67
2021/06/11 02:55:36;;;;;;;7.30;5.43;;;512.10;1664.00;;;;;;5075465;28;20035;-63
2021/06/11 02:58:13;;;;;;;8.65;5.60;;;512.10;1664.00;;;;;;5075164;28;20106;-62
2021/06/11 03:00:41;;;;;;;13.27;6.38;;;512.00;1664.00;;;;;;5075240;28;20070;-67
2021/06/11 03:03:23;;;;;;;8.02;5.88;;;487.30;1664.00;;;;;;5075328;28;20039;-67
2021/06/11 03:05:54;;;;;;;10.32;6.30;;;512.00;1664.00;;;;;;5075145;28;20107;-67
2021/06/11 03:08:25;;;;;;;8.40;6.00;;;512.00;1664.00;;;;;;5075032;28;20021;-62
2021/06/11 03:10:57;;;;;;;8.93;6.03;;;487.20;1689.60;;;;;;5075181;28;20566;-62
2021/06/11 03:13:24;;;;;;;8.27;6.28;;;487.20;1689.60;;;;;;5075176;28;20060;-63
2021/06/11 03:15:52;;;;;;;9.55;5.85;;;487.20;1689.60;;;;;;5074836;28;20024;-62
2021/06/11 03:18:41;;;;;;;6.47;5.53;;;487.10;1715.20;;;;;;5075036;28;20028;-68
2021/06/11 03:21:15;;;;;;;7.45;5.53;;;487.20;1715.20;;;;;;5074752;28;20032;-67
2021/06/11 03:23:50;;;;;;;9.95;6.28;;;487.20;1715.20;;;;;;5074893;28;20020;-62
2021/06/11 03:26:22;;;;;;;10.25;5.70;;;487.20;1715.20;;;;;;5074626;28;20471;-62
2021/06/11 03:28:52;;;;;;;11.75;5.90;;;487.10;1715.20;;;;;;5074866;28;20021;-62
2021/06/11 03:31:21;;;;;;;11.18;6.22;;;487.00;1715.20;;;;;;5075156;28;20055;-62
2021/06/11 03:33:52;;;;;;;12.85;6.53;;;486.90;1740.80;;;;;;5074497;28;20017;-67
2021/06/11 03:36:28;;;;;;;7.40;6.25;;;486.90;1740.80;;;;;;5074567;28;20040;-68
2021/06/11 03:38:59;;;;;;;9.38;6.85;;;486.90;1715.20;;;;;;5074578;28;20033;-62
2021/06/11 03:41:25;;;;;;;10.20;6.22;;;487.00;1740.80;;;;;;5074346;28;20042;-62
2021/06/11 03:43:53;;;;;;;11.95;6.50;;;486.90;1740.80;;;;;;5074230;28;20032;-62
2021/06/11 03:46:19;;;;;;;7.85;6.07;;;486.90;1740.80;;;;;;5074499;28;20378;-62
2021/06/11 03:48:50;;;;;;;7.68;6.53;;;486.90;1740.80;;;;;;5074192;28;20024;-68
2021/06/11 03:51:19;;;;;;;10.35;6.43;;;486.90;1740.80;;;;;;5074384;28;20020;-68
2021/06/11 03:53:45;;;;;;;12.30;6.65;;;486.90;1740.80;;;;;;5073257;28;20028;-67
2021/06/11 03:56:12;;;;;;;9.13;6.70;;;486.80;1740.80;;;;;;5072604;28;20379;-64
2021/06/11 03:58:40;;;;;;;7.70;6.93;;;486.90;1740.80;;;;;;5073691;28;20502;-68
2021/06/11 04:01:10;;;;;;;9.77;6.57;;;486.90;1740.80;;;;;;5074238;28;20040;-67
2021/06/11 04:03:42;;;;;;;10.07;6.63;;;487.00;1740.80;;;;;;5073999;28;20377;-67
2021/06/11 04:06:13;;;;;;;10.40;6.95;;;487.10;1740.80;;;;;;5073851;28;20032;-62
2021/06/11 04:08:38;;;;;;;9.50;6.50;;;487.10;1740.80;;;;;;5074164;28;20134;-68
2021/06/11 04:11:06;;;;;;;8.88;7.07;;;487.10;1715.20;;;;;;5073814;28;20035;-62
2021/06/11 04:13:59;;;;;;;10.07;7.30;;;487.20;1715.20;;;;;;5074067;28;20062;-62
2021/06/11 04:16:33;;;;;;;14.32;7.80;;;487.20;1715.20;;;;;;5072457;28;20040;-62
2021/06/11 04:19:01;;;;;;;7.68;6.55;;;487.20;1715.20;;;;;;5073771;28;20543;-62
2021/06/11 04:21:33;;;;;;;11.40;7.07;;;487.30;1689.60;;;;;;5073988;28;20021;-68
2021/06/11 04:24:04;;;;;;;10.15;7.15;;;512.00;1689.60;;;;;;5073977;28;20099;-62
2021/06/11 04:26:33;;;;;;;14.20;6.82;;;512.10;1689.60;;;;;;5073889;28;20533;-62
2021/06/11 04:29:02;;;;;;;10.48;6.82;;;512.20;1689.60;;;;;;5073904;28;20078;-62
2021/06/11 04:31:29;;;;;;;16.88;7.63;;;512.30;1689.60;;;;;;5073866;28;20123;-62
2021/06/11 04:33:57;;;;;;;8.15;7.20;;;512.50;1689.60;;;;;;5073522;28;20060;-62
2021/06/11 04:36:23;;;;;;;10.23;6.88;;;512.50;1689.60;;;;;;5073386;28;20033;-62
2021/06/11 04:38:55;;;;;;;8.27;6.53;;;512.60;1689.60;;;;;;5073881;28;20017;-62
2021/06/11 04:41:23;;;;;;;7.15;6.18;;;512.70;1689.60;;;;;;5073787;28;20024;-61
2021/06/11 04:43:49;;;;;;;12.48;7.18;;;512.70;1664.00;;;;;;5073363;28;20029;-62
2021/06/11 04:46:15;;;;;;;9.68;6.43;;;512.80;1664.00;;;;;;5073434;28;20028;-62
2021/06/11 04:48:40;;;;;;;12.20;6.63;;;512.90;1664.00;;;;;;5073432;28;20100;-68
2021/06/11 04:51:06;;;;;;;8.85;6.25;;;537.60;1689.60;;;;;;5073353;28;20409;-67
2021/06/11 04:53:32;;;;;;;9.18;7.28;;;537.60;1664.00;;;;;;5073283;28;20031;-66
2021/06/11 04:55:58;;;;;;;10.95;6.13;;;537.60;1689.60;;;;;;5073505;28;20025;-68
2021/06/11 04:58:26;;;;;;;7.32;6.53;;;537.70;1664.00;;;;;;5073008;28;20508;-62
2021/06/11 05:00:52;;;;;;;9.73;6.65;;;537.70;1664.00;;;;;;5073249;28;20469;-62
2021/06/11 05:03:18;;;;;;;8.23;6.68;;;537.80;1664.00;;;;;;5073532;28;20039;-63
2021/06/11 05:05:44;;;;;;;7.32;6.63;;;537.80;1664.00;;;;;;5076192;28;20027;-66
2021/06/11 05:08:10;;;;;;;12.43;7.30;;;537.80;1664.00;;;;;;5077547;28;20032;-68
2021/06/11 05:10:38;;;;;;;13.35;7.63;;;537.90;1689.60;;;;;;5077235;28;20017;-68
2021/06/11 05:13:04;;;;;;;11.93;7.35;;;537.90;1689.60;;;;;;5077499;28;20032;-62
2021/06/11 05:15:30;;;;;;;8.10;7.07;;;538.00;1689.60;;;;;;5077093;28;20033;-68
2021/06/11 05:18:05;;;;;;;10.32;6.78;;;538.00;1664.00;;;;;;5077072;28;20025;-66
2021/06/11 05:20:32;;;;;;;8.55;6.57;;;538.00;1664.00;;;;;;5077387;28;20113;-67
2021/06/11 05:22:58;;;;;;;8.23;6.85;;;538.00;1664.00;;;;;;5077456;28;20028;-64
2021/06/11 05:25:25;;;;;;;9.82;7.75;;;538.00;1664.00;;;;;;5076955;28;20082;-68
2021/06/11 05:27:51;;;;;;;8.00;6.80;;;538.10;1664.00;;;;;;5076957;28;20031;-68
2021/06/11 05:30:18;;;;;;;9.18;7.22;;;538.10;1689.60;;;;;;5077947;28;20025;-65
2021/06/11 05:32:47;;;;;;;8.98;7.10;;;538.10;1689.60;;;;;;5077074;28;20055;-67
2021/06/11 05:35:14;;;;;;;7.28;6.43;;;538.10;1664.00;;;;;;5076760;28;20020;-67
2021/06/11 05:37:40;;;;;;;9.75;6.78;;;538.10;1664.00;;;;;;5076881;28;20040;-64
2021/06/11 05:40:06;;;;;;;7.95;6.63;;;538.20;1689.60;;;;;;5076941;28;20477;-63
2021/06/11 05:42:33;;;;;;;9.18;6.22;;;538.20;1689.60;;;;;;5076563;28;20028;-64
2021/06/11 05:44:59;;;;;;;8.05;6.32;;;538.20;1689.60;;;;;;5076584;28;20031;-63
2021/06/11 05:47:25;;;;;;;7.68;6.03;;;538.20;1715.20;;;;;;5076593;28;20021;-64
2021/06/11 05:49:51;;;;;;;8.05;6.38;;;538.30;1664.00;;;;;;5076532;28;20036;-65
2021/06/11 05:52:18;;;;;;;7.20;6.45;;;538.40;1664.00;;;;;;5076758;28;20078;-64
2021/06/11 05:54:44;;;;;;;11.07;6.22;;;538.50;1638.40;;;;;;5076547;28;20031;-63
2021/06/11 05:57:10;;;;;;;7.43;5.45;;;538.50;1664.00;;;;;;5076506;28;20054;-63
2021/06/11 05:59:35;;;;;;;11.27;5.60;;;563.20;1664.00;;;;;;5076088;28;20525;-62
2021/06/11 06:02:02;;;;;;;5.95;5.13;;;563.20;1638.40;;;;;;5076331;28;20033;-63
2021/06/11 06:04:27;;;;;;;8.48;5.38;;;563.40;1638.40;;;;;;5076202;28;20477;-67
2021/06/11 06:06:53;;;;;;;9.10;5.95;;;563.40;1638.40;;;;;;5076413;28;20051;-63
2021/06/11 06:09:19;;;;;;;8.63;5.65;;;563.40;1664.00;;;;;;5076287;28;20438;-63
2021/06/11 06:11:45;;;;;;;9.75;5.28;;;563.40;1638.40;;;;;;5076027;28;20029;-63
2021/06/11 06:14:11;;;;;;;6.90;6.18;;;563.50;1638.40;;;;;;5075364;28;20028;-63
2021/06/11 06:16:37;;;;;;;9.75;5.78;;;563.60;1638.40;;;;;;5075026;28;20465;-62
2021/06/11 06:19:03;;;;;;;5.60;5.10;;;563.70;1612.80;;;;;;5074677;28;20024;-63
2021/06/11 06:21:31;;;;;;;7.93;5.13;;;563.80;1612.80;;;;;;5076259;28;20025;-63
2021/06/11 06:23:58;;;;;;;7.72;5.15;;;563.90;1612.80;;;;;;5075545;28;20027;-62
2021/06/11 06:26:24;;;;;;;9.38;5.68;;;564.00;1612.80;;;;;;5075189;28;20146;-63
2021/06/11 06:28:50;;;;;;;6.25;4.68;;;564.10;1587.20;;;;;;5075401;28;20028;-69
2021/06/11 06:31:17;;;;;;;9.20;4.93;;;588.80;1587.20;;;;;;5075434;28;20035;-63
2021/06/11 06:33:43;;;;;;;6.32;5.25;;;588.90;1587.20;;;;;;5075091;28;20060;-62
2021/06/11 06:36:10;;;;;;;7.15;4.97;;;588.80;1561.60;;;;;;5075519;28;20060;-64
2021/06/11 06:38:36;;;;;;;5.72;5.18;;;588.90;1561.60;;;;;;5074353;28;20029;-64
2021/06/11 06:41:03;;;;;;;10.05;5.03;;;589.00;1561.60;;;;;;5074570;28;20024;-63
2021/06/11 06:43:30;;;;;;;5.95;4.57;;;589.10;1561.60;;;;;;5074353;28;20021;-63
2021/06/11 06:45:57;;;;;;;6.10;4.55;;;589.30;1536.00;;;;;;5074382;28;20031;-64
2021/06/11 06:48:23;;;;;;;6.57;5.03;;;589.50;1536.00;;;;;;5074664;28;20458;-63
2021/06/11 06:50:49;;;;;;;7.25;4.97;;;589.50;1510.40;;;;;;5074144;28;20099;-65
2021/06/11 06:53:18;;;;;;;6.75;4.30;;;589.50;1484.80;;;;;;5075096;28;20044;-67
2021/06/11 06:55:44;;;;;;;7.70;4.78;;;589.50;1510.40;;;;;;5075434;28;20361;-63
2021/06/11 06:58:10;;;;;;;7.22;6.40;;;589.50;1510.40;;;;;;5074548;28;20064;-63
2021/06/11 07:00:37;;;;;;;7.95;6.40;;;589.50;1510.40;;;;;;5073543;28;20056;-68
2021/06/11 07:03:03;;;;;;;10.55;5.70;;;589.40;1510.40;;;;;;5072288;28;20063;-64
2021/06/11 07:05:30;;;;;;;10.60;4.88;;;589.40;1510.40;;;;;;5070595;28;20032;-73
2021/06/11 07:07:56;;;;;;;8.73;4.88;;;589.20;1510.40;;;;;;5072417;28;20702;-69
2021/06/11 07:10:23;;;;;;;6.55;4.30;;;589.40;1510.40;;;;;;5072142;28;20111;-70
2021/06/11 07:12:51;;;;;;;7.78;4.45;;;589.30;1510.40;;;;;;5073210;28;20347;-72
2021/06/11 07:15:18;;;;;;;7.57;5.03;;;589.40;1510.40;;;;;;5073125;28;20161;-63
2021/06/11 07:17:43;;;;;;;10.60;5.80;;;589.50;1510.40;;;;;;5073496;28;20473;-70
2021/06/11 07:20:10;;;;;;;11.68;6.07;;;589.60;1510.40;;;;;;5072249;28;20024;-73
2021/06/11 07:22:37;;;;;;;9.02;5.70;;;614.40;1510.40;;;;;;5072435;28;20028;-69
2021/06/11 07:25:05;;;;;;;7.53;4.97;;;614.40;1510.40;;;;;;5071788;28;20461;-72
2021/06/11 07:27:33;;;;;;;8.00;5.13;;;614.50;1510.40;;;;;;5073052;28;20106;-66
2021/06/11 07:30:07;;;;;;;6.97;4.38;;;614.60;1510.40;;;;;;5071389;28;20034;-65
2021/06/11 07:32:34;;;;;;;5.13;4.60;;;614.80;1459.20;;;;;;5072313;28;20036;-66
2021/06/11 07:35:00;;;;;;;6.82;4.90;;;614.90;1484.80;;;;;;5072159;28;20202;-69
2021/06/11 07:37:26;;;;;;;10.90;5.88;;;615.00;1459.20;;;;;;5072379;28;20027;-70
2021/06/11 07:39:52;;;;;;;7.43;4.95;;;615.00;1484.80;;;;;;5072572;28;20052;-62
2021/06/11 07:42:18;;;;;;;16.83;5.55;;;615.00;1510.40;;;;;;5072129;28;20128;-67
2021/06/11 07:44:44;;;;;;;6.57;5.45;;;614.90;1510.40;;;;;;5071330;28;20020;-63
2021/06/11 07:47:11;;;;;;;9.75;5.97;;;614.90;1484.80;;;;;;5071829;28;20035;-76
2021/06/11 07:49:42;;;;;;;7.45;6.15;;;614.80;1561.60;;;;;;5072065;28;20021;-71
2021/06/11 07:52:08;;;;;;;8.25;6.45;;;614.60;1561.60;;;;;;5072129;28;20108;-70
2021/06/11 07:54:34;;;;;;;9.45;5.65;;;614.70;1561.60;;;;;;5071678;28;20029;-63
2021/06/11 07:57:00;;;;;;;12.65;5.88;;;614.80;1561.60;;;;;;5071929;28;20043;-70
2021/06/11 07:59:26;;;;;;;7.05;5.38;;;614.90;1510.40;;;;;;5072007;28;20068;-65
2021/06/11 08:01:52;;;;;;;14.75;4.88;;;614.90;1510.40;;;;;;5072566;28;20028;-62
2021/06/11 08:04:18;;;;;;;7.57;4.68;;;614.90;1536.00;;;;;;5072097;28;20021;-64
2021/06/11 08:06:46;;;;;;;6.47;3.85;;;614.90;1510.40;;;;;;5071851;28;20060;-65
2021/06/11 08:09:12;;;;;;;9.15;3.60;;;615.00;1510.40;;;;;;5071093;28;20032;-69
2021/06/11 08:11:38;;;;;;;11.43;3.97;;;615.00;1510.40;;;;;;5071563;28;20043;-63
2021/06/11 08:14:04;;;;;;;7.65;3.95;;;615.00;1510.40;;;;;;5071978;28;20473;-65
2021/06/11 08:16:30;;;;;;;6.65;4.15;;;615.00;1484.80;;;;;;5065613;28;20048;-64
2021/06/11 08:18:56;;;;;;;9.18;3.90;;;615.00;1510.40;;;;;;5070598;28;20066;-68
2021/06/11 08:21:22;;;;;;;28.10;5.45;;;614.90;1510.40;;;;;;5071959;28;20036;-65
2021/06/11 08:23:48;;;;;;;27.02;4.68;;;614.80;1510.40;;;;;;5072119;28;20032;-63
2021/06/11 08:26:14;;;;;;;6.70;3.67;;;614.70;1510.40;;;;;;5070577;28;20024;-65
2021/06/11 08:28:40;;;;;;;8.45;2.60;;;614.60;1510.40;;;;;;5071722;28;20090;-65
2021/06/11 08:31:07;;;;;;;3.85;2.40;;;614.60;1459.20;;;;;;5071267;28;20016;-66
2021/06/11 08:33:33;;;;;;;6.88;2.60;;;614.50;1459.20;;;;;;5069621;28;20032;-66
2021/06/11 08:35:59;;;;;;;3.58;1.85;;;614.40;1484.80;;;;;;5071215;28;20393;-64
2021/06/11 08:38:26;;;;;;;6.20;2.40;;;614.40;1459.20;;;;;;5071868;28;20024;-66
2021/06/11 08:40:52;;;;;;;5.00;2.20;;;589.60;1510.40;;;;;;5071011;28;20020;-63
2021/06/11 08:43:21;;;;;;;5.95;2.63;;;589.50;1510.40;;;;;;5071134;28;20036;-65
2021/06/11 08:45:49;;;;;;;9.07;2.60;;;589.50;1536.00;;;;;;5072034;28;20483;-67
2021/06/11 08:48:16;;;;;;;6.65;3.97;;;589.50;1536.00;;;;;;5071788;28;20115;-64
2021/06/11 08:50:43;;;;;;;6.22;3.65;;;589.40;1536.00;;;;;;5070465;28;20032;-66
2021/06/11 08:53:09;;;;;;;4.85;2.97;;;589.30;1561.60;;;;;;5071889;28;20032;-65
2021/06/11 08:55:36;;;;;;;7.25;3.90;;;589.20;1612.80;;;;;;5072514;28;20462;-64
2021/06/11 08:58:06;;;;;;;44.90;22.73;;;589.20;1612.80;;;;;;5070837;28;20044;-65
2021/06/11 09:00:32;;;;;;;18.13;9.98;;;589.10;1612.80;;;;;;5071720;28;20062;-63
2021/06/11 09:03:18;;;;;;;9.95;3.95;;;589.10;1638.40;;;;;;5071421;28;20375;-65
2021/06/11 09:05:47;;;;;;;24.25;12.23;;;589.00;1664.00;;;;;;5071764;28;20037;-63
2021/06/11 09:08:17;;;;;;;14.25;7.63;;;589.00;1664.00;;;;;;5071989;28;20025;-64
2021/06/11 09:10:44;;;;;;;9.35;6.32;;;589.00;1689.60;;;;;;5072078;28;20104;-68
2021/06/11 09:13:20;;;;;;;10.57;7.80;;;588.90;1715.20;;;;;;5071893;28;20414;-63
2021/06/11 09:15:46;;;;;;;12.93;8.60;;;588.90;1740.80;;;;;;5071596;28;20103;-64
2021/06/11 09:18:21;;;;;;;9.65;8.23;;;588.90;1740.80;;;;;;5071829;28;20115;-68
2021/06/11 09:20:48;;;;;;;11.05;7.78;;;588.90;1740.80;;;;;;5070272;28;20062;-63
2021/06/11 09:23:13;;;;;;;8.95;7.40;;;588.90;1715.20;;;;;;5069812;28;20389;-65
2021/06/11 09:25:43;;;;;;;8.80;7.55;;;588.80;1740.80;;;;;;5070766;28;20033;-66
2021/06/11 09:28:12;;;;;;;14.70;7.80;;;588.80;1715.20;;;;;;5071329;28;20017;-66
2021/06/11 09:30:38;;;;;;;8.85;6.18;;;564.10;1715.20;;;;;;5070167;28;20131;-68
2021/06/11 09:33:11;;;;;;;7.13;5.78;;;564.10;1715.20;;;;;;5071403;28;20446;-66
2021/06/11 09:35:44;;;;;;;9.10;6.13;;;564.10;1740.80;;;;;;5071497;28;20032;-65
2021/06/11 09:38:19;;;;;;;38.95;7.03;;;563.90;1766.40;;;;;;5071543;28;20389;-64
2021/06/11 09:40:48;;;;;;;7.18;4.38;;;563.90;1740.80;;;;;;5071366;28;20020;-68
2021/06/11 09:43:15;;;;;;;12.90;5.20;;;564.00;1715.20;;;;;;5071530;28;20453;-69
2021/06/11 09:45:42;;;;;;;6.50;3.60;;;564.00;1740.80;;;;;;5071656;28;20020;-66
2021/06/11 09:48:27;;;;;;;9.27;4.00;;;564.00;1715.20;;;;;;5071323;28;20035;-63
2021/06/11 09:50:53;;;;;;;4.85;3.45;;;564.10;1689.60;;;;;;5071477;28;20082;-65
2021/06/11 09:53:26;;;;;;;8.95;3.95;;;564.10;1689.60;;;;;;5074123;28;20021;-65
2021/06/11 09:55:57;;;;;;;6.60;3.47;;;588.80;1689.60;;;;;;5075264;28;20029;-67
2021/06/11 09:58:33;;;;;;;5.78;3.63;;;588.90;1689.60;;;;;;5073433;28;20044;-63
2021/06/11 10:01:00;;;;;;;7.88;4.05;;;588.90;1689.60;;;;;;5074747;28;20024;-67
2021/06/11 10:03:29;;;;;;;17.92;5.72;;;589.00;1689.60;;;;;;5074742;28;20078;-69
2021/06/11 10:05:58;;;;;;;11.05;4.53;;;589.10;1715.20;;;;;;5074996;28;20025;-66
2021/06/11 10:08:25;;;;;;;5.38;4.70;;;589.20;1715.20;;;;;;5075008;28;20025;-64
2021/06/11 10:10:57;;;;;;;9.00;5.50;;;589.20;1740.80;;;;;;5074522;28;20024;-65
2021/06/11 10:13:23;;;;;;;7.82;5.78;;;589.30;1740.80;;;;;;5075284;28;20043;-66
2021/06/11 10:15:54;;;;;;;6.50;5.80;;;589.40;1715.20;;;;;;5073844;28;20366;-65
2021/06/11 10:18:21;;;;;;;9.63;6.07;;;589.50;1689.60;;;;;;5074701;28;20496;-63
2021/06/11 10:20:48;;;;;;;8.27;5.97;;;589.50;1740.80;;;;;;5074392;28;20028;-68
2021/06/11 10:23:17;;;;;;;7.07;4.43;;;589.60;1715.20;;;;;;5074515;28;20028;-62
2021/06/11 10:25:46;;;;;;;4.22;3.78;;;589.60;1689.60;;;;;;5075342;28;20028;-65
2021/06/11 10:28:19;;;;;;;6.28;3.50;;;614.40;1664.00;;;;;;5064722;28;20033;-67
2021/06/11 10:30:46;;;;;;;8.25;2.75;;;614.40;1638.40;;;;;;5069885;28;20107;-64
2021/06/11 10:33:12;;;;;;;7.15;2.60;;;614.40;1536.00;;;;;;5073858;28;20036;-68
2021/06/11 10:35:44;;;;;;;25.10;4.00;;;614.50;1536.00;;;;;;5074291;28;20025;-65
2021/06/11 10:38:12;;;;;;;16.42;3.15;;;614.50;1561.60;;;;;;5074790;28;20043;-65
2021/06/11 10:40:40;;;;;;;7.45;2.55;;;614.60;1587.20;;;;;;5073657;28;20067;-70
2021/06/11 10:43:28;;;;;;;5.18;2.38;;;614.60;1510.40;;;;;;5073840;28;20021;-68
2021/06/11 10:45:56;;;;;;;3.47;2.10;;;614.70;1561.60;;;;;;5071552;28;20111;-65
2021/06/11 10:48:23;;;;;;;10.07;2.35;;;614.80;1536.00;;;;;;5073106;28;20020;-69
2021/06/11 10:50:50;;;;;;;5.03;1.90;;;614.80;1536.00;;;;;;5070791;28;20497;-68
2021/06/11 10:53:27;;;;;;;5.72;2.10;;;614.90;1536.00;;;;;;5073219;28;20020;-71
2021/06/11 10:56:24;;;;;;;4.95;1.75;;;614.90;1484.80;;;;;;5070122;28;20096;-67
2021/06/11 10:58:50;;;;;;;3.60;2.00;;;615.00;1433.60;;;;;;5072611;28;20066;-70
2021/06/11 11:01:27;;;;;;;3.92;1.73;;;615.00;1408.00;;;;;;5071620;28;20537;-71
2021/06/11 11:03:53;;;;;;;2.88;1.65;;;615.10;1433.60;;;;;;5072557;28;20056;-69
2021/06/11 11:06:50;;;;;;;3.75;1.90;;;615.10;1433.60;;;;;;5071911;28;20038;-71
2021/06/11 11:09:16;;;;;;;4.75;1.90;;;615.20;1382.40;;;;;;5066302;28;20032;-65
2021/06/11 11:11:46;;;;;;;3.22;1.83;;;615.20;1408.00;;;;;;5072592;28;20082;-63
2021/06/11 11:14:39;;;;;;;7.32;1.40;;;615.30;1331.20;;;;;;5071893;28;20074;-63
2021/06/11 11:17:05;;;;;;;2.30;1.45;;;615.30;1305.60;;;;;;5069529;28;20089;-67
2021/06/11 11:19:52;;;;;;;3.60;1.77;;;615.30;1331.20;;;;;;5069804;28;20504;-71
2021/06/11 11:22:39;;;;;;;3.45;1.58;;;615.30;1331.20;;;;;;5064869;28;20186;-67
2021/06/11 11:25:14;;;;;;;4.78;1.70;;;640.00;1305.60;;;;;;5071644;28;20114;-71
2021/06/11 11:27:41;;;;;;;2.63;1.90;;;640.00;1254.40;;;;;;5068313;28;20031;-65
2021/06/11 11:30:10;;;;;;;3.67;1.98;;;640.00;1254.40;;;;;;5072555;28;20017;-71
2021/06/11 11:32:35;;;;;;;3.00;1.65;;;640.00;1280.00;;;;;;5072595;28;20020;-65
2021/06/11 11:35:02;;;;;;;5.03;1.67;;;640.00;1280.00;;;;;;5071982;28;20096;-67
2021/06/11 11:37:27;;;;;;;4.93;1.50;;;640.00;1254.40;;;;;;5071758;28;20029;-67
2021/06/11 11:39:53;;;;;;;2.42;1.55;;;640.10;1280.00;;;;;;5071840;28;20031;-71
2021/06/11 11:42:20;;;;;;;3.13;1.77;;;640.10;1228.80;;;;;;5072040;28;20021;-67
2021/06/11 11:44:46;;;;;;;2.05;1.20;;;640.20;1280.00;;;;;;5072862;28;20027;-69
2021/06/11 11:47:11;;;;;;;4.35;2.90;;;640.20;1228.80;;;;;;5073040;28;20392;-66
2021/06/11 11:49:37;;;;;;;5.13;1.90;;;640.30;1254.40;;;;;;5071594;28;20446;-69
2021/06/11 11:52:04;;;;;;;5.50;1.77;;;640.40;1254.40;;;;;;5072546;28;20040;-65
2021/06/11 11:54:33;;;;;;;2.78;1.50;;;640.50;1254.40;;;;;;5072457;28;20485;-71
2021/06/11 11:57:02;;;;;;;4.68;2.10;;;640.60;1254.40;;;;;;5071790;28;20060;-74
2021/06/11 11:59:28;;;;;;;3.35;1.67;;;640.60;1254.40;;;;;;5072539;28;20040;-70
2021/06/11 12:01:54;;;;;;;2.05;1.20;;;640.60;1228.80;;;;;;5072588;28;20032;-69
2021/06/11 12:04:20;;;;;;;2.85;1.73;;;640.70;1203.20;;;;;;5072390;28;20059;-69
2021/06/11 12:06:46;;;;;;;2.33;1.60;;;640.80;1228.80;;;;;;5072738;28;20255;-72
2021/06/11 12:09:12;;;;;;;2.97;1.85;;;640.80;1228.80;;;;;;5072287;28;20020;-71
2021/06/11 12:11:38;;;;;;;2.65;1.50;;;640.90;1228.80;;;;;;5071229;28;20021;-64
2021/06/11 12:14:04;;;;;;;4.25;2.00;;;665.60;1254.40;;;;;;5070223;28;20032;-70
2021/06/11 12:16:30;;;;;;;3.47;1.70;;;665.60;1254.40;;;;;;5070720;28;20036;-69
2021/06/11 12:18:57;;;;;;;5.13;2.00;;;665.60;1254.40;;;;;;5071986;28;20691;-67
2021/06/11 12:21:24;;;;;;;15.07;3.08;;;665.60;1228.80;;;;;;5071270;28;20032;-68